KMOP/MOP METAR and TAF weather

Enter ICAO airport designator
Station Type Date Time Source
KMOP METAR 2022/06/25 22:15 UTC NOAA

KMOP 252215Z AUTO 21005KT 10SM CLR 28/12 A2997 RMK AO2 T02800121


Station Type Date Time Source
KMOP Decoded METAR 2022/06/25 22:15 UTC NOAA

Mount Pleasant, Mount Pleasant Municipal Airport, MI, United States (KMOP) 43-37N 84-44W
Jun 25, 2022 - 06:15 PM EDT / 2022.06.25 2215 UTC
Wind: from the SSW (210 degrees) at 6 MPH (5 KT):0
Visibility: 10 mile(s):0
Sky conditions: clear
Temperature: 82.4 F (28.0 C)
Dew Point: 53.8 F (12.1 C)
Relative Humidity: 37%
Pressure (altimeter): 29.97 in. Hg (1014 hPa)
ob: KMOP 252215Z AUTO 21005KT 10SM CLR 28/12 A2997 RMK AO2 T02800121
cycle: 22

Station Type Date Time Source
KMOP TAF UTC NOAA

Error!

Example: see airport list